Time;durP1;ratioP1;P1;durP2;ratioP2;P2;SDS_P1;SDS_P2;PMS_P1;PMS_P2;Temp;Humidity;BMP_temperature;BMP_pressure;BME280_temperature;BME280_humidity;BME280_pressure;Samples;Min_cycle;Max_cycle;Signal;HPM_P1;HPM_P2
2022/01/07 00:02:03;;;;;;;;;;;11.70;92.80;;;;;;5043173;28;20349;-60
2022/01/07 00:04:31;;;;;;;;;;;11.60;92.70;;;;;;5042408;28;20003;-62
2022/01/07 00:06:57;;;;;;;;;;;11.70;92.80;;;;;;5044207;28;20352;-61
2022/01/07 00:09:22;;;;;;;;;;;11.70;92.80;;;;;;5056099;28;19971;-61
2022/01/07 00:11:48;;;;;;;;;;;11.60;92.70;;;;;;5055516;28;19921;-60
2022/01/07 00:14:14;;;;;;;;;;;;;;;;;;5019539;28;20341;-65
2022/01/07 00:16:40;;;;;;;;;;;11.70;92.70;;;;;;5042058;28;19920;-61
2022/01/07 00:19:05;;;;;;;;;;;11.50;92.70;;;;;;5055718;28;19920;-60
2022/01/07 00:21:31;;;;;;;;;;;;;;;;;;5055299;28;20428;-65
2022/01/07 00:23:57;;;;;;;;;;;11.40;92.70;;;;;;5048577;28;19920;-60
2022/01/07 00:26:23;;;;;;;;;;;11.40;92.60;;;;;;5051125;28;20078;-61
2022/01/07 00:28:48;;;;;;;;;;;11.50;92.60;;;;;;5048701;28;19945;-60
2022/01/07 00:31:14;;;;;;;;;;;11.60;92.70;;;;;;5058193;28;19924;-61
2022/01/07 00:33:39;;;;;;;;;;;11.70;92.70;;;;;;5055530;28;19924;-60
2022/01/07 00:36:06;;;;;;;;;;;11.50;92.60;;;;;;5054968;28;19986;-60
2022/01/07 00:38:32;;;;;;;;;;;11.60;92.70;;;;;;5055422;28;19971;-60
2022/01/07 00:40:58;;;;;;;;;;;11.50;92.60;;;;;;5048523;28;20049;-61
2022/01/07 00:43:24;;;;;;;;;;;11.40;92.60;;;;;;5041331;28;19924;-61
2022/01/07 00:45:49;;;;;;;;;;;11.60;92.60;;;;;;5055422;28;20003;-60
2022/01/07 00:48:15;;;;;;;;;;;11.60;92.70;;;;;;5054392;28;19923;-60
2022/01/07 00:50:41;;;;;;;;;;;11.50;92.60;;;;;;5054681;28;19976;-61
2022/01/07 00:53:06;;;;;;;;;;;11.50;92.60;;;;;;5034631;28;19925;-66
2022/01/07 00:55:32;;;;;;;;;;;11.60;92.60;;;;;;5043885;28;19974;-66
2022/01/07 00:57:58;;;;;;;;;;;11.50;92.60;;;;;;5048012;28;20343;-66
2022/01/07 01:00:24;;;;;;;;;;;11.60;92.60;;;;;;5046487;28;19931;-66
2022/01/07 01:02:50;;;;;;;;;;;11.50;92.50;;;;;;5053577;28;19929;-66
2022/01/07 01:05:15;;;;;;;;;;;11.50;92.50;;;;;;5025890;28;19927;-66
2022/01/07 01:07:41;;;;;;;;;;;11.70;92.60;;;;;;5038890;28;19921;-67
2022/01/07 01:10:07;;;;;;;;;;;11.70;92.70;;;;;;5054804;28;20073;-66
2022/01/07 01:12:36;;;;;;;;;;;11.70;92.60;;;;;;5054162;28;19921;-61
2022/01/07 01:15:02;;;;;;;;;;;11.90;92.60;;;;;;5042883;28;19920;-61
2022/01/07 01:17:28;;;;;;;;;;;11.70;92.50;;;;;;5041467;28;20278;-67
2022/01/07 01:19:54;;;;;;;;;;;11.80;92.60;;;;;;5051384;28;19921;-66
2022/01/07 01:22:19;;;;;;;;;;;11.70;92.60;;;;;;5054129;28;19920;-66
2022/01/07 01:24:45;;;;;;;;;;;;;;;;;;5051067;28;20333;-66
2022/01/07 01:27:11;;;;;;;;;;;11.70;92.50;;;;;;5052413;28;19921;-67
2022/01/07 01:29:37;;;;;;;;;;;11.80;92.50;;;;;;5036510;28;19921;-61
2022/01/07 01:32:03;;;;;;;;;;;11.80;92.50;;;;;;5040618;28;20317;-66
2022/01/07 01:34:29;;;;;;;;;;;12.00;92.60;;;;;;5025601;28;19921;-66
2022/01/07 01:36:54;;;;;;;;;;;11.80;92.60;;;;;;5048905;28;19916;-66
2022/01/07 01:39:20;;;;;;;;;;;11.70;92.60;;;;;;5037253;28;19921;-66
2022/01/07 01:41:46;;;;;;;;;;;11.80;92.60;;;;;;5053693;28;20263;-66
2022/01/07 01:44:12;;;;;;;;;;;;;;;;;;5035747;28;20378;-66
2022/01/07 01:46:37;;;;;;;;;;;11.50;92.60;;;;;;5063119;28;19927;-67
2022/01/07 01:49:03;;;;;;;;;;;12.00;92.70;;;;;;5051361;28;20389;-66
2022/01/07 01:51:29;;;;;;;;;;;11.60;92.60;;;;;;5050432;28;20374;-66
2022/01/07 01:53:55;;;;;;;;;;;11.70;92.60;;;;;;5034603;28;19972;-61
2022/01/07 01:56:20;;;;;;;;;;;11.90;92.70;;;;;;5051983;28;19927;-60
2022/01/07 01:58:46;;;;;;;;;;;11.60;92.60;;;;;;5042475;28;19928;-61
2022/01/07 02:01:12;;;;;;;;;;;11.80;92.50;;;;;;5053180;28;20019;-61
2022/01/07 02:03:37;;;;;;;;;;;11.80;92.60;;;;;;5052482;28;19921;-61
2022/01/07 02:06:03;;;;;;;;;;;11.60;92.60;;;;;;5027238;28;20349;-60
2022/01/07 02:08:29;;;;;;;;;;;11.50;92.60;;;;;;5045629;28;19974;-66
2022/01/07 02:10:55;;;;;;;;;;;11.50;92.50;;;;;;5052610;28;19921;-66
2022/01/07 02:13:20;;;;;;;;;;;11.80;92.60;;;;;;5033573;28;20007;-67
2022/01/07 02:15:46;;;;;;;;;;;11.50;92.50;;;;;;5045063;28;20378;-66
2022/01/07 02:18:12;;;;;;;;;;;11.70;92.50;;;;;;5052811;28;19925;-66
2022/01/07 02:20:38;;;;;;;;;;;;;;;;;;5052991;28;19947;-66
2022/01/07 02:23:03;;;;;;;;;;;11.50;92.40;;;;;;5047609;28;20610;-60
2022/01/07 02:25:29;;;;;;;;;;;11.60;92.40;;;;;;5051273;28;19920;-60
2022/01/07 02:27:55;;;;;;;;;;;;;;;;;;5052216;28;19921;-65
2022/01/07 02:30:22;;;;;;;;;;;11.50;92.60;;;;;;5052297;28;20035;-66
2022/01/07 02:32:47;;;;;;;;;;;11.50;92.50;;;;;;5052796;28;19925;-61
2022/01/07 02:35:13;;;;;;;;;;;11.70;92.50;;;;;;5049208;28;19929;-65
2022/01/07 02:37:39;;;;;;;;;;;11.70;92.50;;;;;;5049143;28;19974;-66
2022/01/07 02:40:05;;;;;;;;;;;;;;;;;;5041868;28;19921;-65
2022/01/07 02:42:31;;;;;;;;;;;11.50;92.60;;;;;;5052899;28;19921;-65
2022/01/07 02:44:56;;;;;;;;;;;11.50;92.60;;;;;;5052743;28;19974;-66
2022/01/07 02:47:22;;;;;;;;;;;11.50;92.60;;;;;;5051813;28;20281;-66
2022/01/07 02:49:48;;;;;;;;;;;11.40;92.60;;;;;;5035830;28;19928;-66
2022/01/07 02:52:14;;;;;;;;;;;11.50;92.70;;;;;;5035891;28;20278;-66
2022/01/07 02:54:40;;;;;;;;;;;11.50;92.70;;;;;;5052740;28;19943;-66
2022/01/07 02:57:05;;;;;;;;;;;11.40;92.40;;;;;;5045709;28;19917;-66
2022/01/07 02:59:31;;;;;;;;;;;11.20;92.60;;;;;;5056771;28;19920;-66
2022/01/07 03:01:57;;;;;;;;;;;;;;;;;;5052147;28;19928;-62
2022/01/07 03:04:24;;;;;;;;;;;11.30;92.60;;;;;;5052054;28;19924;-60
2022/01/07 03:06:49;;;;;;;;;;;11.20;92.70;;;;;;5053161;28;19921;-60
2022/01/07 03:09:15;;;;;;;;;;;;;;;;;;5045775;28;19928;-62
2022/01/07 03:11:41;;;;;;;;;;;11.50;92.70;;;;;;5033167;28;19928;-60
2022/01/07 03:14:07;;;;;;;;;;;11.40;92.70;;;;;;5041009;28;20003;-66
2022/01/07 03:16:32;;;;;;;;;;;11.30;92.70;;;;;;5053186;28;19966;-66
2022/01/07 03:18:58;;;;;;;;;;;11.30;92.60;;;;;;5033327;28;19921;-66
2022/01/07 03:21:23;;;;;;;;;;;11.30;92.40;;;;;;5040023;28;19921;-67
2022/01/07 03:23:49;;;;;;;;;;;11.10;92.60;;;;;;5041552;28;20370;-66
2022/01/07 03:26:15;;;;;;;;;;;11.30;92.60;;;;;;5052308;28;19924;-66
2022/01/07 03:28:41;;;;;;;;;;;11.40;92.70;;;;;;5053781;28;20358;-66
2022/01/07 03:31:06;;;;;;;;;;;11.30;92.70;;;;;;5048010;28;20488;-66
2022/01/07 03:33:32;;;;;;;;;;;11.50;92.80;;;;;;5052560;28;19921;-66
2022/01/07 03:35:58;;;;;;;;;;;11.30;92.70;;;;;;5051912;28;19916;-65
2022/01/07 03:38:23;;;;;;;;;;;11.30;92.70;;;;;;5042823;28;19932;-66
2022/01/07 03:40:49;;;;;;;;;;;11.30;92.70;;;;;;5056135;28;20391;-66
2022/01/07 03:43:15;;;;;;;;;;;11.50;92.70;;;;;;5055742;28;20016;-66
2022/01/07 03:45:40;;;;;;;;;;;11.30;92.70;;;;;;5055995;28;20359;-66
2022/01/07 03:48:06;;;;;;;;;;;11.50;92.70;;;;;;5050344;28;19928;-66
2022/01/07 03:50:32;;;;;;;;;;;11.60;92.70;;;;;;5051694;28;19921;-66
2022/01/07 03:52:58;;;;;;;;;;;11.50;92.80;;;;;;5055765;28;20386;-66
2022/01/07 03:55:24;;;;;;;;;;;11.20;92.70;;;;;;5036317;28;19931;-66
2022/01/07 03:57:50;;;;;;;;;;;;;;;;;;5056054;28;19921;-66
2022/01/07 04:00:20;;;;;;;;;;;11.30;92.70;;;;;;5053101;28;19920;-66
2022/01/07 04:02:46;;;;;;;;;;;11.20;92.70;;;;;;5054985;28;19921;-66
2022/01/07 04:05:13;;;;;;;;;;;11.40;92.80;;;;;;5036641;28;19927;-66
2022/01/07 04:07:39;;;;;;;;;;;11.40;92.80;;;;;;5037415;28;20019;-61
2022/01/07 04:10:05;;;;;;;;;;;11.50;92.80;;;;;;5037687;28;19968;-61
2022/01/07 04:12:31;;;;;;;;;;;;;;;;;;5053831;28;19920;-62
2022/01/07 04:15:29;;;;;;;;;;;11.40;92.80;;;;;;5055099;28;19920;-60
2022/01/07 04:17:50;;;;;;;;;;;11.40;92.80;;;;;;5042232;28;19921;-60
2022/01/07 04:20:16;;;;;;;;;;;11.40;92.80;;;;;;5046928;28;19920;-61
2022/01/07 04:22:42;;;;;;;;;;;11.30;92.80;;;;;;5042834;28;20401;-61
2022/01/07 04:25:08;;;;;;;;;;;11.40;92.80;;;;;;5052851;28;19921;-60
2022/01/07 04:27:34;;;;;;;;;;;11.60;92.80;;;;;;5055460;28;19955;-60
2022/01/07 04:29:59;;;;;;;;;;;11.50;92.80;;;;;;5032520;28;19921;-61
2022/01/07 04:32:25;;;;;;;;;;;11.40;92.80;;;;;;5035734;28;19973;-61
2022/01/07 04:34:51;;;;;;;;;;;;;;;;;;5049977;28;20317;-61
2022/01/07 04:37:17;;;;;;;;;;;11.10;92.80;;;;;;5055214;28;19974;-60
2022/01/07 04:39:43;;;;;;;;;;;11.20;92.80;;;;;;5042375;28;20375;-61
2022/01/07 04:42:08;;;;;;;;;;;11.30;92.80;;;;;;5055670;28;20015;-62
2022/01/07 04:44:40;;;;;;;;;;;11.20;92.80;;;;;;5053169;28;20390;-66
2022/01/07 04:47:06;;;;;;;;;;;11.60;92.90;;;;;;5040191;28;20294;-66
2022/01/07 04:49:32;;;;;;;;;;;11.20;92.80;;;;;;5054782;28;19927;-66
2022/01/07 04:51:57;;;;;;;;;;;11.30;92.90;;;;;;5055419;28;19921;-66
2022/01/07 04:54:23;;;;;;;;;;;11.40;92.60;;;;;;5053425;28;19931;-60
2022/01/07 04:56:48;;;;;;;;;;;11.50;92.90;;;;;;5050868;28;20454;-61
2022/01/07 04:59:14;;;;;;;;;;;;;;;;;;5036610;28;19921;-61
2022/01/07 05:01:40;;;;;;;;;;;11.20;92.80;;;;;;5054215;28;19920;-66
2022/01/07 05:04:06;;;;;;;;;;;11.60;92.90;;;;;;5045441;28;19924;-66
2022/01/07 05:09:09;;;;;;;;;;;11.50;93.00;;;;;;5054391;28;19921;-67
2022/01/07 05:11:34;;;;;;;;;;;11.50;93.00;;;;;;5053852;28;20293;-67
2022/01/07 05:14:00;;;;;;;;;;;11.40;92.80;;;;;;5049733;28;20007;-63
2022/01/07 05:16:28;;;;;;;;;;;11.40;92.90;;;;;;5053377;28;20011;-61
2022/01/07 05:18:54;;;;;;;;;;;11.50;92.90;;;;;;5050305;28;19991;-61
2022/01/07 05:21:20;;;;;;;;;;;11.30;92.80;;;;;;5040823;28;19921;-60
2022/01/07 05:23:45;;;;;;;;;;;11.40;92.90;;;;;;5053761;28;19927;-61
2022/01/07 05:26:11;;;;;;;;;;;11.40;93.00;;;;;;5053828;28;20012;-61
2022/01/07 05:28:37;;;;;;;;;;;11.40;92.60;;;;;;5068846;28;19925;-61
2022/01/07 05:31:03;;;;;;;;;;;11.40;93.00;;;;;;5038954;28;19929;-66
2022/01/07 05:33:29;;;;;;;;;;;11.40;93.00;;;;;;5047840;28;19943;-62
2022/01/07 05:35:54;;;;;;;;;;;11.40;92.90;;;;;;5050891;28;19943;-62
2022/01/07 05:38:20;;;;;;;;;;;11.80;93.00;;;;;;5039244;28;19921;-62
2022/01/07 05:40:45;;;;;;;;;;;11.60;93.10;;;;;;5040098;28;20047;-62
2022/01/07 05:43:11;;;;;;;;;;;11.50;93.10;;;;;;5035508;28;19921;-61
2022/01/07 05:45:49;;;;;;;;;;;11.50;93.00;;;;;;5048892;28;19947;-66
2022/01/07 05:48:15;;;;;;;;;;;11.40;93.00;;;;;;5039339;28;20294;-67
2022/01/07 05:50:40;;;;;;;;;;;11.20;92.90;;;;;;5051882;28;19921;-66
2022/01/07 05:53:06;;;;;;;;;;;;;;;;;;5053860;28;19924;-66
2022/01/07 05:55:32;;;;;;;;;;;11.30;93.00;;;;;;5041720;28;20325;-66
2022/01/07 05:57:57;;;;;;;;;;;11.50;93.00;;;;;;5054014;28;19959;-66
2022/01/07 06:00:23;;;;;;;;;;;11.30;93.00;;;;;;5052639;28;19931;-66
2022/01/07 06:02:48;;;;;;;;;;;11.20;93.00;;;;;;5052086;28;19920;-66
2022/01/07 06:05:14;;;;;;;;;;;11.40;93.00;;;;;;5036854;28;19921;-65
2022/01/07 06:07:40;;;;;;;;;;;11.40;93.00;;;;;;5039337;28;19921;-67
2022/01/07 06:10:06;;;;;;;;;;;;;;;;;;5042686;28;19925;-66
2022/01/07 06:12:31;;;;;;;;;;;11.30;93.10;;;;;;5033511;28;20030;-61
2022/01/07 06:14:58;;;;;;;;;;;;;;;;;;5045329;28;19929;-61
2022/01/07 06:17:23;;;;;;;;;;;11.30;93.00;;;;;;5043165;28;19979;-63
2022/01/07 06:19:49;;;;;;;;;;;11.50;93.10;;;;;;5043501;28;19921;-61
2022/01/07 06:22:15;;;;;;;;;;;11.50;93.10;;;;;;5042891;28;19928;-66
2022/01/07 06:24:40;;;;;;;;;;;11.40;93.10;;;;;;5039432;28;19921;-62
2022/01/07 06:27:06;;;;;;;;;;;11.50;93.10;;;;;;5046392;28;19925;-61
2022/01/07 06:29:31;;;;;;;;;;;11.50;93.10;;;;;;5051033;28;19921;-62
2022/01/07 06:31:58;;;;;;;;;;;;;;;;;;5053173;28;19925;-67
2022/01/07 06:34:23;;;;;;;;;;;11.50;93.10;;;;;;5052461;28;19974;-60
2022/01/07 06:36:49;;;;;;;;;;;;;;;;;;5052759;28;20263;-63
2022/01/07 06:39:15;;;;;;;;;;;11.50;93.10;;;;;;5050779;28;19921;-60
2022/01/07 06:41:41;;;;;;;;;;;11.60;93.10;;;;;;5051579;28;20376;-62
2022/01/07 06:44:07;;;;;;;;;;;11.50;93.10;;;;;;5032843;28;19967;-60
2022/01/07 06:46:32;;;;;;;;;;;11.50;93.10;;;;;;5058827;28;19929;-66
2022/01/07 06:48:58;;;;;;;;;;;;;;;;;;5060125;28;19925;-63
2022/01/07 06:51:24;;;;;;;;;;;11.40;93.00;;;;;;5059751;28;19927;-69
2022/01/07 06:53:49;;;;;;;;;;;11.40;93.00;;;;;;5032410;28;19920;-67
2022/01/07 06:56:15;;;;;;;;;;;11.50;93.10;;;;;;5052846;28;19921;-60
2022/01/07 06:58:42;;;;;;;;;;;11.40;93.10;;;;;;5055414;28;20346;-60
2022/01/07 07:01:07;;;;;;;;;;;11.60;93.10;;;;;;5050349;28;19921;-65
2022/01/07 07:03:35;;;;;;;;;;;;;;;;;;5055842;28;19924;-63
2022/01/07 07:06:00;;;;;;;;;;;11.50;93.00;;;;;;5061594;28;20007;-59
2022/01/07 07:08:28;;;;;;;;;;;;;;;;;;5049144;28;20087;-69
2022/01/07 07:10:54;;;;;;;;;;;11.60;92.80;;;;;;5043727;28;20063;-63
2022/01/07 07:13:20;;;;;;;;;;;11.70;92.90;;;;;;5047532;28;19979;-61
2022/01/07 07:15:46;;;;;;;;;;;11.60;92.90;;;;;;5044384;28;19952;-71
2022/01/07 07:18:13;;;;;;;;;;;11.50;92.60;;;;;;5039162;28;19927;-60
2022/01/07 07:20:39;;;;;;;;;;;;;;;;;;5020545;28;19928;-63
2022/01/07 07:23:05;;;;;;;;;;;;;;;;;;5039082;28;19932;-62
2022/01/07 07:25:31;;;;;;;;;;;;;;;;;;5039415;28;20701;-61
2022/01/07 07:27:57;;;;;;;;;;;;;;;;;;5041509;28;20621;-62
2022/01/07 07:30:24;;;;;;;;;;;;;;;;;;5020582;28;20011;-60
2022/01/07 07:32:53;;;;;;;;;;;;;;;;;;5039724;28;19921;-60
2022/01/07 07:37:45;;;;;;;;;;;;;;;;;;5038926;28;19924;-66
2022/01/07 07:40:11;;;;;;;;;;;;;;;;;;5036862;28;19924;-63
2022/01/07 07:42:37;;;;;;;;;;;11.70;92.80;;;;;;5056448;28;19931;-64
2022/01/07 07:45:06;;;;;;;;;;;11.70;93.00;;;;;;5038297;28;19968;-64
2022/01/07 07:47:33;;;;;;;;;;;11.80;92.90;;;;;;5055498;28;19956;-65
2022/01/07 07:49:59;;;;;;;;;;;;;;;;;;5055058;28;20436;-64
2022/01/07 07:52:25;;;;;;;;;;;11.60;93.00;;;;;;5056494;28;19959;-68
2022/01/07 07:54:50;;;;;;;;;;;11.80;93.00;;;;;;5053592;28;19943;-60
2022/01/07 07:57:16;;;;;;;;;;;11.60;93.10;;;;;;5066144;28;19928;-61
2022/01/07 07:59:42;;;;;;;;;;;;;;;;;;5064012;28;19961;-62
2022/01/07 08:02:09;;;;;;;;;;;;;;;;;;5064567;28;19921;-61
2022/01/07 08:04:36;;;;;;;;;;;11.80;93.20;;;;;;5060065;28;19927;-61
2022/01/07 08:07:02;;;;;;;;;;;11.70;93.20;;;;;;5062918;28;19921;-66
2022/01/07 08:09:30;;;;;;;;;;;11.70;93.20;;;;;;5060747;28;19927;-60
2022/01/07 08:12:04;;;;;;;;;;;11.60;93.20;;;;;;5068410;28;20386;-60
2022/01/07 08:17:15;;;;;;;;;;;11.70;93.20;;;;;;5060983;28;19960;-60
2022/01/07 08:19:40;;;;;;;;;;;11.90;93.20;;;;;;5059445;28;20405;-67
2022/01/07 08:22:06;;;;;;;;;;;11.90;93.10;;;;;;5036222;28;19925;-60
2022/01/07 08:24:32;;;;;;;;;;;;;;;;;;5050792;28;19971;-67
2022/01/07 08:26:58;;;;;;;;;;;12.00;93.00;;;;;;5050718;28;19924;-63
2022/01/07 08:29:29;;;;;;;;;;;;;;;;;;5049922;28;19931;-63
2022/01/07 08:34:55;;;;;;;;;;;12.10;92.90;;;;;;5049153;28;19925;-64
2022/01/07 08:37:22;;;;;;;;;;;;;;;;;;5029629;28;19920;-65
2022/01/07 08:39:48;;;;;;;;;;;;;;;;;;5037231;28;20336;-65
2022/01/07 08:42:14;;;;;;;;;;;;;;;;;;5050971;28;19930;-67
2022/01/07 08:44:39;;;;;;;;;;;12.30;92.60;;;;;;5054486;28;19956;-67
2022/01/07 08:47:05;;;;;;;;;;;;;;;;;;5051147;28;20448;-66
2022/01/07 08:49:31;;;;;;;;;;;;;;;;;;5031518;28;20389;-61
2022/01/07 08:51:59;;;;;;;;;;;;;;;;;;5050447;28;19929;-72
2022/01/07 08:54:25;;;;;;;;;;;;;;;;;;5048860;28;20070;-69
2022/01/07 08:56:51;;;;;;;;;;;;;;;;;;5052256;28;20011;-69
2022/01/07 08:59:16;;;;;;;;;;;11.90;92.70;;;;;;5054198;28;19982;-61
2022/01/07 09:01:42;;;;;;;;;;;12.00;92.40;;;;;;5051010;28;20608;-64
2022/01/07 09:04:08;;;;;;;;;;;12.10;92.80;;;;;;5052901;28;19924;-67
2022/01/07 09:06:34;;;;;;;;;;;;;;;;;;5052470;28;19921;-65
2022/01/07 09:09:00;;;;;;;;;;;;;;;;;;5054559;28;20388;-64
2022/01/07 09:11:26;;;;;;;;;;;;;;;;;;5057066;28;20401;-69
2022/01/07 09:13:52;;;;;;;;;;;12.20;92.90;;;;;;5051002;28;19921;-68
2022/01/07 09:16:18;;;;;;;;;;;;;;;;;;5049266;28;19925;-63
2022/01/07 09:18:44;;;;;;;;;;;;;;;;;;5049387;28;19969;-62
2022/01/07 09:21:10;;;;;;;;;;;;;;;;;;5044720;28;20749;-66
2022/01/07 09:23:40;;;;;;;;;;;12.00;92.80;;;;;;5046238;28;19920;-64
2022/01/07 09:26:06;;;;;;;;;;;12.10;92.70;;;;;;5044978;28;19928;-62
2022/01/07 09:28:33;;;;;;;;;;;;;;;;;;5027918;28;20278;-63
2022/01/07 09:31:00;;;;;;;;;;;;;;;;;;5042668;28;20007;-68
2022/01/07 09:33:27;;;;;;;;;;;12.10;92.50;;;;;;5047352;28;20003;-73
2022/01/07 09:35:53;;;;;;;;;;;11.90;92.80;;;;;;5029342;28;19929;-64
2022/01/07 09:38:18;;;;;;;;;;;12.10;92.60;;;;;;5046603;28;19921;-63
2022/01/07 09:40:44;;;;;;;;;;;;;;;;;;5046891;28;20003;-62
2022/01/07 09:43:12;;;;;;;;;;;;;;;;;;5049299;28;20791;-65
2022/01/07 09:45:39;;;;;;;;;;;;;;;;;;5052166;28;19927;-66
2022/01/07 09:48:05;;;;;;;;;;;12.40;93.10;;;;;;5048046;28;19931;-66
2022/01/07 09:50:31;;;;;;;;;;;;;;;;;;5050801;28;19925;-63
2022/01/07 09:52:57;;;;;;;;;;;;;;;;;;5049954;28;19932;-61
2022/01/07 09:55:23;;;;;;;;;;;;;;;;;;5051082;28;20021;-65
2022/01/07 09:57:49;;;;;;;;;;;;;;;;;;5049820;28;19981;-65
2022/01/07 10:00:15;;;;;;;;;;;12.30;93.20;;;;;;5050195;28;19921;-62
2022/01/07 10:02:41;;;;;;;;;;;;;;;;;;5050769;28;19924;-63
2022/01/07 10:05:15;;;;;;;;;;;12.10;93.20;;;;;;5050423;28;19924;-61
2022/01/07 10:07:42;;;;;;;;;;;;;;;;;;5049751;28;19925;-65
2022/01/07 10:10:08;;;;;;;;;;;;;;;;;;5050068;28;19924;-61
2022/01/07 10:12:35;;;;;;;;;;;;;;;;;;5026971;28;19921;-63
2022/01/07 10:15:19;;;;;;;;;;;12.10;93.10;;;;;;5049146;28;19927;-64
2022/01/07 10:17:45;;;;;;;;;;;;;;;;;;5046735;28;19928;-62
2022/01/07 10:20:12;;;;;;;;;;;;;;;;;;5044427;28;20293;-69
2022/01/07 10:22:39;;;;;;;;;;;;;;;;;;5041291;28;19947;-61
2022/01/07 10:25:05;;;;;;;;;;;;;;;;;;5044258;28;19936;-64
2022/01/07 10:27:35;;;;;;;;;;;12.10;93.30;;;;;;5050868;28;20301;-63
2022/01/07 10:30:01;;;;;;;;;;;;;;;;;;5040275;28;20011;-66
2022/01/07 10:32:27;;;;;;;;;;;;;;;;;;5049348;28;20007;-69
2022/01/07 10:34:53;;;;;;;;;;;;;;;;;;5040128;28;20348;-70
2022/01/07 10:37:19;;;;;;;;;;;;;;;;;;5052195;28;20023;-67
2022/01/07 10:39:45;;;;;;;;;;;11.90;93.20;;;;;;5040100;28;19916;-64
2022/01/07 10:42:11;;;;;;;;;;;;;;;;;;5057695;28;20366;-68
2022/01/07 10:44:37;;;;;;;;;;;;;;;;;;5055508;28;19921;-68
2022/01/07 10:47:03;;;;;;;;;;;;;;;;;;5057683;28;19924;-63
2022/01/07 10:49:29;;;;;;;;;;;;;;;;;;5057890;28;20025;-62
2022/01/07 10:51:55;;;;;;;;;;;12.10;93.10;;;;;;5057670;28;20058;-69
2022/01/07 10:54:22;;;;;;;;;;;;;;;;;;5040400;28;20007;-72
2022/01/07 10:56:48;;;;;;;;;;;;;;;;;;5038666;28;19923;-71
2022/01/07 10:59:14;;;;;;;;;;;;;;;;;;5045052;28;19921;-68
2022/01/07 11:01:40;;;;;;;;;;;;;;;;;;5058808;28;19924;-64
2022/01/07 11:04:07;;;;;;;;;;;;;;;;;;5057220;28;19924;-63
2022/01/07 11:06:33;;;;;;;;;;;;;;;;;;5057665;28;19932;-62
2022/01/07 11:08:59;;;;;;;;;;;;;;;;;;5055917;28;19932;-67
2022/01/07 11:11:25;;;;;;;;;;;;;;;;;;5040529;28;20425;-66
2022/01/07 11:13:51;;;;;;;;;;;;;;;;;;5055751;28;19920;-71
2022/01/07 11:16:18;;;;;;;;;;;12.20;93.00;;;;;;5052657;28;19925;-73
2022/01/07 11:18:44;;;;;;;;;;;;;;;;;;5051961;28;20008;-63
2022/01/07 11:21:10;;;;;;;;;;;12.30;93.00;;;;;;5050926;28;19967;-63
2022/01/07 11:23:37;;;;;;;;;;;;;;;;;;5048109;28;20385;-62
2022/01/07 11:26:03;;;;;;;;;;;;;;;;;;5052806;28;19975;-66
2022/01/07 11:28:29;;;;;;;;;;;12.50;93.10;;;;;;5051816;28;19921;-68
2022/01/07 11:30:55;;;;;;;;;;;;;;;;;;5052668;28;19931;-64
2022/01/07 11:33:22;;;;;;;;;;;;;;;;;;5053186;28;20310;-65
2022/01/07 11:35:49;;;;;;;;;;;;;;;;;;5052032;28;19978;-64
2022/01/07 11:38:15;;;;;;;;;;;;;;;;;;5054966;28;19921;-66
2022/01/07 11:40:41;;;;;;;;;;;;;;;;;;5052156;28;19956;-67
2022/01/07 11:43:08;;;;;;;;;;;;;;;;;;5052651;28;19925;-63
2022/01/07 11:45:34;;;;;;;;;;;12.70;92.80;;;;;;5053202;28;19925;-66
2022/01/07 11:48:00;;;;;;;;;;;;;;;;;;5052679;28;19920;-66
2022/01/07 11:50:26;;;;;;;;;;;;;;;;;;5048418;28;19921;-64
2022/01/07 11:53:04;;;;;;;;;;;12.60;93.10;;;;;;5050162;28;19932;-62
2022/01/07 11:55:30;;;;;;;;;;;;;;;;;;5051423;28;19955;-65
2022/01/07 11:57:57;;;;;;;;;;;;;;;;;;5048492;28;19920;-63
2022/01/07 12:00:42;;;;;;;;;;;12.60;93.10;;;;;;5048668;28;19925;-65
2022/01/07 12:03:08;;;;;;;;;;;;;;;;;;5049347;28;20412;-65
2022/01/07 12:05:33;;;;;;;;;;;12.90;93.10;;;;;;5045968;28;19978;-67
2022/01/07 12:07:59;;;;;;;;;;;;;;;;;;5045249;28;19917;-68
2022/01/07 12:10:25;;;;;;;;;;;;;;;;;;5050756;28;19927;-63
2022/01/07 12:12:57;;;;;;;;;;;12.70;93.00;;;;;;5052040;28;19925;-66
2022/01/07 12:15:25;;;;;;;;;;;;;;;;;;5032012;28;19925;-63
2022/01/07 12:17:51;;;;;;;;;;;;;;;;;;5044271;28;20051;-65
2022/01/07 12:20:35;;;;;;;;;;;12.70;93.10;;;;;;5048711;28;20374;-63
2022/01/07 12:23:01;;;;;;;;;;;;;;;;;;5052351;28;19920;-65
2022/01/07 12:25:27;;;;;;;;;;;;;;;;;;5046334;28;19917;-62
2022/01/07 12:28:00;;;;;;;;;;;12.90;93.20;;;;;;5035021;28;20298;-61
2022/01/07 12:30:26;;;;;;;;;;;;;;;;;;5049723;28;19983;-66
2022/01/07 12:32:55;;;;;;;;;;;;;;;;;;5050344;28;19964;-63
2022/01/07 12:35:21;;;;;;;;;;;;;;;;;;5050397;28;20059;-61
2022/01/07 12:37:47;;;;;;;;;;;;;;;;;;5053545;28;20032;-62
2022/01/07 12:40:13;;;;;;;;;;;;;;;;;;5052153;28;20025;-67
2022/01/07 12:42:40;;;;;;;;;;;12.50;93.00;;;;;;5055089;28;20035;-62
2022/01/07 12:45:06;;;;;;;;;;;12.90;93.30;;;;;;5050677;28;20668;-66
2022/01/07 12:47:32;;;;;;;;;;;;;;;;;;5057149;28;20358;-62
2022/01/07 12:49:58;;;;;;;;;;;;;;;;;;5053878;28;19921;-65
2022/01/07 12:52:29;;;;;;;;;;;12.70;93.70;;;;;;5059465;28;19921;-61
2022/01/07 12:54:55;;;;;;;;;;;;;;;;;;5065349;28;19921;-64
2022/01/07 12:57:21;;;;;;;;;;;;;;;;;;5061523;28;19928;-62
2022/01/07 12:59:48;;;;;;;;;;;12.60;93.80;;;;;;5062805;28;19967;-63
2022/01/07 13:02:15;;;;;;;;;;;;;;;;;;5057102;28;20404;-65
2022/01/07 13:04:41;;;;;;;;;;;;;;;;;;5056696;28;19920;-69
2022/01/07 13:07:07;;;;;;;;;;;12.70;93.80;;;;;;5064659;28;19928;-62
2022/01/07 13:09:33;;;;;;;;;;;12.50;93.70;;;;;;5059453;28;19968;-64
2022/01/07 13:12:00;;;;;;;;;;;;;;;;;;5061759;28;19968;-61
2022/01/07 13:14:26;;;;;;;;;;;12.60;93.70;;;;;;5062130;28;19928;-64
2022/01/07 13:16:53;;;;;;;;;;;;;;;;;;5064447;28;19929;-64
2022/01/07 13:19:18;;;;;;;;;;;;;;;;;;5062691;28;19921;-69
2022/01/07 13:21:46;;;;;;;;;;;;;;;;;;5064635;28;19928;-63
2022/01/07 13:24:12;;;;;;;;;;;;;;;;;;5059915;28;19942;-63
2022/01/07 13:26:38;;;;;;;;;;;12.70;93.70;;;;;;5056497;28;20377;-61
2022/01/07 13:29:04;;;;;;;;;;;;;;;;;;5056765;28;20328;-64
2022/01/07 13:31:31;;;;;;;;;;;12.60;93.70;;;;;;5050484;28;19986;-62
2022/01/07 13:33:57;;;;;;;;;;;12.40;93.60;;;;;;5038773;28;19920;-62
2022/01/07 13:36:32;;;;;;;;;;;12.60;93.60;;;;;;5056434;28;19923;-65
2022/01/07 13:38:59;;;;;;;;;;;12.70;93.70;;;;;;5058776;28;19927;-64
2022/01/07 13:41:24;;;;;;;;;;;12.50;93.70;;;;;;5063717;28;19920;-62
2022/01/07 13:43:50;;;;;;;;;;;12.80;93.70;;;;;;5057267;28;19924;-63
2022/01/07 13:46:16;;;;;;;;;;;;;;;;;;5066855;28;19998;-64
2022/01/07 13:48:48;;;;;;;;;;;12.40;93.60;;;;;;5060548;28;20005;-68
2022/01/07 13:51:14;;;;;;;;;;;12.90;93.70;;;;;;5054965;28;19944;-64
2022/01/07 13:53:40;;;;;;;;;;;12.50;93.60;;;;;;5058124;28;20335;-71
2022/01/07 13:56:06;;;;;;;;;;;12.60;93.60;;;;;;5056100;28;19975;-71
2022/01/07 13:58:31;;;;;;;;;;;12.80;93.70;;;;;;5054511;28;19921;-78
2022/01/07 14:01:03;;;;;;;;;;;12.60;93.50;;;;;;5044658;28;20330;-64
2022/01/07 14:03:29;;;;;;;;;;;12.60;93.30;;;;;;5074163;28;19926;-61
2022/01/07 14:06:01;;;;;;;;;;;12.50;93.60;;;;;;5046150;28;20003;-75
2022/01/07 14:08:26;;;;;;;;;;;12.30;93.80;;;;;;5064170;28;19920;-70
2022/01/07 14:10:52;;;;;;;;;;;12.40;94.00;;;;;;5043895;28;19931;-63
2022/01/07 14:13:19;;;;;;;;;;;12.50;94.10;;;;;;5064086;28;21325;-70
2022/01/07 14:15:45;;;;;;;;;;;12.40;94.10;;;;;;5060005;28;19946;-70
2022/01/07 14:18:13;;;;;;;;;;;12.60;94.10;;;;;;5060108;28;19920;-69
2022/01/07 14:20:49;;;;;;;;;;;12.40;94.00;;;;;;5063437;28;19928;-74
2022/01/07 14:23:19;;;;;;;;;;;12.50;94.00;;;;;;5060389;28;19920;-74
2022/01/07 14:25:45;;;;;;;;;;;12.40;93.90;;;;;;5064276;28;19936;-66
2022/01/07 14:28:12;;;;;;;;;;;;;;;;;;5065740;28;19920;-66
2022/01/07 14:30:38;;;;;;;;;;;12.40;93.90;;;;;;5061042;28;20400;-64
2022/01/07 14:33:03;;;;;;;;;;;12.30;93.90;;;;;;5072615;28;19921;-62
2022/01/07 14:35:29;;;;;;;;;;;12.50;93.60;;;;;;5063964;28;20445;-61
2022/01/07 14:37:54;;;;;;;;;;;12.60;93.90;;;;;;5043160;28;19921;-66
2022/01/07 14:40:20;;;;;;;;;;;12.30;93.80;;;;;;5065766;28;19921;-66
2022/01/07 14:42:46;;;;;;;;;;;12.40;93.90;;;;;;5053697;28;19924;-70
2022/01/07 14:45:11;;;;;;;;;;;12.50;93.90;;;;;;5051880;28;20383;-69
2022/01/07 14:47:37;;;;;;;;;;;12.40;93.90;;;;;;5053444;28;19935;-65
2022/01/07 14:50:03;;;;;;;;;;;;;;;;;;5053202;28;19920;-61
2022/01/07 14:52:29;;;;;;;;;;;12.40;93.90;;;;;;5034348;28;19928;-62
2022/01/07 14:54:55;;;;;;;;;;;12.40;93.80;;;;;;5049191;28;20665;-67
2022/01/07 14:57:20;;;;;;;;;;;12.60;93.90;;;;;;5034740;28;20020;-62
2022/01/07 14:59:47;;;;;;;;;;;12.50;93.90;;;;;;5042763;28;19973;-62
2022/01/07 15:02:12;;;;;;;;;;;12.60;93.90;;;;;;5063412;28;19924;-62
2022/01/07 15:04:38;;;;;;;;;;;12.30;93.70;;;;;;5064537;28;19981;-64
2022/01/07 15:07:04;;;;;;;;;;;;;;;;;;5039581;28;19935;-65